createdAt,value
2022-11-30T00:02:25.139Z,21.67
2022-11-30T00:04:54.438Z,22.77
2022-11-30T00:07:23.985Z,25.48
2022-11-30T00:09:54.786Z,23.63
2022-11-30T00:12:24.144Z,22.25
2022-11-30T00:14:53.402Z,23.08
2022-11-30T00:17:22.745Z,24.50
2022-11-30T00:19:52.235Z,20.45
2022-11-30T00:22:21.547Z,23.90
2022-11-30T00:24:50.916Z,24.08
2022-11-30T00:27:21.725Z,23.50
2022-11-30T00:29:51.032Z,23.65
2022-11-30T00:32:20.525Z,23.20
2022-11-30T00:34:49.849Z,24.60
2022-11-30T00:37:19.215Z,24.17
2022-11-30T00:39:48.736Z,22.42
2022-11-30T00:42:18.046Z,24.02
2022-11-30T00:44:48.896Z,21.38
2022-11-30T00:47:18.314Z,20.70
2022-11-30T00:49:47.686Z,21.50
2022-11-30T00:52:16.996Z,23.55
2022-11-30T00:54:46.602Z,23.77
2022-11-30T00:57:16.334Z,25.52
2022-11-30T00:59:45.591Z,24.53
2022-11-30T01:02:16.947Z,23.45
2022-11-30T01:04:46.750Z,27.52
2022-11-30T01:07:16.415Z,22.75
2022-11-30T01:09:45.912Z,26.48
2022-11-30T01:12:15.178Z,28.87
2022-11-30T01:14:44.657Z,32.35
2022-11-30T01:17:15.664Z,31.75
2022-11-30T01:19:44.985Z,25.55
2022-11-30T01:22:14.256Z,28.00
2022-11-30T01:24:43.620Z,29.43
2022-11-30T01:27:12.945Z,29.25
2022-11-30T01:29:42.221Z,33.17
2022-11-30T01:32:11.608Z,29.38
2022-11-30T01:34:42.317Z,30.08
2022-11-30T01:37:11.688Z,25.50
2022-11-30T01:39:40.975Z,26.08
2022-11-30T01:42:16.122Z,28.15
2022-11-30T01:44:55.566Z,26.40
2022-11-30T01:47:30.167Z,29.75
2022-11-30T01:50:05.653Z,27.37
2022-11-30T01:52:37.750Z,26.63
2022-11-30T01:55:17.979Z,28.90
2022-11-30T01:57:50.682Z,23.83
2022-11-30T02:00:20.883Z,26.08
2022-11-30T02:02:57.089Z,24.83
2022-11-30T02:05:28.834Z,27.02
2022-11-30T02:07:58.652Z,25.88
2022-11-30T02:10:31.365Z,29.48
2022-11-30T02:13:28.916Z,25.20
2022-11-30T02:16:07.881Z,25.83
2022-11-30T02:18:47.991Z,27.98
2022-11-30T02:21:23.239Z,25.80
2022-11-30T02:24:23.384Z,25.92
2022-11-30T02:27:05.441Z,25.35
2022-11-30T02:29:41.094Z,26.60
2022-11-30T02:32:15.716Z,26.90
2022-11-30T02:34:48.042Z,27.35
2022-11-30T02:37:18.396Z,24.83
2022-11-30T02:39:48.326Z,27.30
2022-11-30T02:42:18.294Z,27.60
2022-11-30T02:44:51.353Z,25.50
2022-11-30T02:47:25.924Z,25.55
2022-11-30T02:50:00.486Z,24.08
2022-11-30T02:52:31.905Z,24.55
2022-11-30T02:55:02.407Z,28.83
2022-11-30T02:57:31.854Z,25.13
2022-11-30T03:00:07.119Z,24.05
2022-11-30T03:02:36.627Z,29.02
2022-11-30T03:05:06.605Z,27.63
2022-11-30T03:07:36.357Z,25.43
2022-11-30T03:10:07.282Z,26.38
2022-11-30T03:12:36.564Z,23.05
2022-11-30T03:15:08.037Z,22.08
2022-11-30T03:17:37.379Z,24.92
2022-11-30T03:20:08.440Z,24.23
2022-11-30T03:22:37.688Z,20.85
2022-11-30T03:25:07.825Z,23.95
2022-11-30T03:27:37.750Z,20.90
2022-11-30T03:30:09.984Z,21.88
2022-11-30T03:32:39.309Z,22.47
2022-11-30T03:35:09.345Z,20.90
2022-11-30T03:37:38.625Z,19.15
2022-11-30T03:40:09.471Z,21.23
2022-11-30T03:42:38.838Z,25.83
2022-11-30T03:45:10.287Z,22.67
2022-11-30T03:47:39.573Z,21.65
2022-11-30T03:50:11.336Z,21.05
2022-11-30T03:52:40.622Z,19.13
2022-11-30T03:55:10.573Z,18.30
2022-11-30T03:57:39.825Z,19.23
2022-11-30T04:00:12.493Z,20.05
2022-11-30T04:02:44.844Z,17.50
2022-11-30T04:05:14.745Z,21.63
2022-11-30T04:07:44.087Z,20.00
2022-11-30T04:10:13.725Z,20.63
2022-11-30T04:12:43.053Z,21.50
2022-11-30T04:15:14.107Z,21.52
2022-11-30T04:17:43.448Z,18.30
2022-11-30T04:20:13.083Z,21.35
2022-11-30T04:22:42.466Z,20.17
2022-11-30T04:25:11.755Z,19.98
2022-11-30T04:27:41.217Z,20.13
2022-11-30T04:30:11.733Z,22.30
2022-11-30T04:32:42.765Z,18.55
2022-11-30T04:35:12.467Z,21.00
2022-11-30T04:37:41.813Z,19.25
2022-11-30T04:40:11.811Z,19.73
2022-11-30T04:42:42.165Z,18.83
2022-11-30T04:45:12.587Z,21.42
2022-11-30T04:47:43.314Z,14.00
2022-11-30T04:50:12.745Z,17.08
2022-11-30T04:52:42.084Z,13.77
2022-11-30T04:55:11.479Z,15.00
2022-11-30T04:57:41.175Z,15.07
2022-11-30T05:00:12.779Z,13.53
2022-11-30T05:02:47.565Z,10.95
2022-11-30T05:05:22.254Z,9.23
2022-11-30T05:07:52.221Z,9.50
2022-11-30T05:10:21.532Z,11.45
2022-11-30T05:12:51.549Z,9.30
2022-11-30T05:15:20.945Z,7.32
2022-11-30T05:17:51.739Z,9.38
2022-11-30T05:20:21.066Z,7.85
2022-11-30T05:22:50.490Z,9.68
2022-11-30T05:25:19.747Z,8.53
2022-11-30T05:27:49.035Z,8.13
2022-11-30T05:30:18.739Z,7.32
2022-11-30T05:32:48.116Z,8.10
2022-11-30T05:35:19.084Z,9.07
2022-11-30T05:37:48.395Z,8.97
2022-11-30T05:40:18.001Z,9.32
2022-11-30T05:42:47.315Z,8.30
2022-11-30T05:45:16.764Z,7.50
2022-11-30T05:47:46.035Z,8.48
2022-11-30T05:50:15.374Z,7.73
2022-11-30T05:52:46.321Z,7.25
2022-11-30T05:55:15.613Z,8.57
2022-11-30T05:57:44.904Z,8.82
2022-11-30T06:00:15.495Z,8.35
2022-11-30T06:02:45.051Z,7.37
2022-11-30T06:05:14.979Z,7.65
2022-11-30T06:07:45.790Z,7.55
2022-11-30T06:10:15.184Z,7.60
2022-11-30T06:12:44.718Z,7.25
2022-11-30T06:15:14.026Z,9.43
2022-11-30T06:17:43.288Z,8.13
2022-11-30T06:20:13.586Z,7.03
2022-11-30T06:22:48.187Z,8.77
2022-11-30T06:25:17.641Z,6.97
2022-11-30T06:27:46.925Z,8.80
2022-11-30T06:30:16.867Z,7.75
2022-11-30T06:32:47.075Z,8.70
2022-11-30T06:35:16.642Z,8.07
2022-11-30T06:37:47.577Z,9.73
2022-11-30T06:40:17.274Z,9.87
2022-11-30T06:42:46.513Z,9.63
2022-11-30T06:45:15.937Z,9.82
2022-11-30T06:47:45.224Z,10.82
2022-11-30T06:50:15.385Z,8.50
2022-11-30T06:52:44.724Z,9.60
2022-11-30T06:55:15.544Z,8.43
2022-11-30T06:57:45.198Z,10.70
2022-11-30T07:00:15.827Z,9.02
2022-11-30T07:02:45.064Z,8.48
2022-11-30T07:05:14.295Z,7.77
2022-11-30T07:07:43.592Z,8.48
2022-11-30T07:10:19.814Z,8.23
2022-11-30T07:12:49.458Z,10.35
2022-11-30T07:15:19.264Z,9.23
2022-11-30T07:17:48.595Z,8.67
2022-11-30T07:20:17.977Z,9.48
2022-11-30T07:22:47.285Z,9.23
2022-11-30T07:25:35.294Z,7.70
2022-11-30T07:28:04.572Z,9.10
2022-11-30T07:30:33.935Z,7.63
2022-11-30T07:33:03.202Z,7.90
2022-11-30T07:35:33.039Z,8.50
2022-11-30T07:38:08.238Z,7.90
2022-11-30T07:40:40.403Z,8.07
2022-11-30T07:43:09.682Z,9.47
2022-11-30T07:45:38.988Z,8.35
2022-11-30T07:48:09.956Z,8.18
2022-11-30T07:50:39.292Z,10.02
2022-11-30T07:53:08.775Z,8.10
2022-11-30T07:55:39.654Z,8.43
2022-11-30T07:58:14.273Z,8.45
2022-11-30T08:00:46.690Z,8.23
2022-11-30T08:03:16.105Z,9.90
2022-11-30T08:05:45.398Z,9.90
2022-11-30T08:08:14.700Z,10.93
2022-11-30T08:10:45.404Z,9.35
2022-11-30T08:13:14.756Z,9.68
2022-11-30T08:15:44.455Z,9.88
2022-11-30T08:18:14.073Z,10.65
2022-11-30T08:20:48.444Z,9.33
2022-11-30T08:23:19.376Z,10.10
2022-11-30T08:25:50.095Z,13.15
2022-11-30T08:28:19.408Z,12.20
2022-11-30T08:30:49.346Z,12.45
2022-11-30T08:33:18.703Z,13.03
2022-11-30T08:35:47.975Z,15.73
2022-11-30T08:38:17.358Z,18.30
2022-11-30T08:40:46.703Z,18.95
2022-11-30T08:43:18.302Z,20.45
2022-11-30T08:45:50.373Z,20.70
2022-11-30T08:48:23.547Z,17.23
2022-11-30T08:50:53.000Z,16.70
2022-11-30T08:53:22.404Z,18.55
2022-11-30T08:55:58.047Z,15.40
2022-11-30T08:58:31.087Z,15.30
2022-11-30T09:01:07.920Z,16.17
2022-11-30T09:03:37.625Z,16.35
2022-11-30T09:06:09.013Z,16.83
2022-11-30T09:08:41.011Z,14.85
2022-11-30T09:11:12.405Z,15.97
2022-11-30T09:13:44.029Z,15.98
2022-11-30T09:16:14.507Z,15.85
2022-11-30T09:18:44.315Z,14.90
2022-11-30T09:21:15.137Z,15.07
2022-11-30T09:23:44.427Z,15.80
2022-11-30T09:26:16.385Z,16.15
2022-11-30T09:28:48.309Z,14.00
2022-11-30T09:31:20.127Z,13.70
2022-11-30T09:33:50.337Z,16.10
2022-11-30T09:36:21.255Z,15.03
2022-11-30T09:38:50.889Z,15.52
2022-11-30T09:41:40.169Z,17.05
2022-11-30T09:44:21.693Z,16.20
2022-11-30T09:46:55.446Z,15.60
2022-11-30T09:49:29.096Z,14.33
2022-11-30T09:52:04.435Z,17.65
2022-11-30T09:54:38.115Z,16.88
2022-11-30T09:57:27.557Z,19.92
2022-11-30T10:00:00.248Z,19.15
2022-11-30T10:02:33.817Z,19.63
2022-11-30T10:05:03.812Z,18.98
2022-11-30T10:07:49.470Z,16.08
2022-11-30T10:10:33.170Z,16.90
2022-11-30T10:13:18.245Z,18.15
2022-11-30T10:16:03.034Z,19.80
2022-11-30T10:18:46.795Z,18.60
2022-11-30T10:21:32.310Z,17.70
2022-11-30T10:24:17.490Z,19.65
2022-11-30T10:26:55.772Z,17.80
2022-11-30T10:29:31.991Z,18.63
2022-11-30T10:32:12.186Z,18.73
2022-11-30T10:34:44.714Z,19.35
2022-11-30T10:37:18.716Z,19.55
2022-11-30T10:39:59.673Z,16.20
2022-11-30T10:42:34.280Z,20.17
2022-11-30T10:45:09.477Z,15.95
2022-11-30T10:47:47.954Z,15.38
2022-11-30T10:50:19.036Z,18.23
2022-11-30T10:52:52.562Z,17.65
2022-11-30T10:55:24.793Z,15.60
2022-11-30T10:58:00.628Z,18.42
2022-11-30T11:00:30.076Z,19.98
2022-11-30T11:03:01.154Z,20.60
2022-11-30T11:05:32.161Z,16.23
2022-11-30T11:08:07.112Z,19.40
2022-11-30T11:10:44.278Z,20.63
2022-11-30T11:13:18.083Z,18.85
2022-11-30T11:15:59.411Z,18.02
2022-11-30T11:18:31.417Z,20.65
2022-11-30T11:21:07.316Z,22.37
2022-11-30T11:23:39.366Z,20.33
2022-11-30T11:26:17.367Z,19.35
2022-11-30T11:28:50.230Z,16.73
2022-11-30T11:31:35.821Z,18.02
2022-11-30T11:34:24.065Z,17.37
2022-11-30T11:37:08.775Z,16.63
2022-11-30T11:39:38.214Z,17.33
2022-11-30T11:42:19.073Z,17.08
2022-11-30T11:44:52.843Z,17.60
2022-11-30T11:47:26.845Z,17.33
2022-11-30T11:51:04.324Z,15.82
2022-11-30T11:53:26.393Z,17.75
2022-11-30T11:56:00.784Z,16.17
2022-11-30T11:58:39.936Z,16.08
2022-11-30T12:01:39.291Z,17.13
2022-11-30T12:04:29.241Z,15.30
2022-11-30T12:07:03.937Z,16.63
2022-11-30T12:09:38.037Z,16.67
2022-11-30T12:12:12.287Z,18.30
2022-11-30T12:14:41.728Z,18.57
2022-11-30T12:17:28.241Z,19.92
2022-11-30T12:20:05.026Z,19.08
2022-11-30T12:22:52.086Z,18.13
2022-11-30T12:25:26.934Z,18.45
2022-11-30T12:28:08.506Z,16.83
2022-11-30T12:30:47.893Z,20.17
2022-11-30T12:33:26.220Z,19.95
2022-11-30T12:36:04.026Z,18.77
2022-11-30T12:38:50.810Z,18.77
2022-11-30T12:41:32.535Z,21.87
2022-11-30T12:44:22.496Z,21.13
2022-11-30T12:46:57.825Z,21.83
2022-11-30T12:49:40.435Z,20.15
2022-11-30T12:52:27.276Z,22.23
2022-11-30T12:55:11.765Z,22.03
2022-11-30T12:57:48.867Z,21.40
2022-11-30T13:00:21.927Z,24.02
2022-11-30T13:03:35.315Z,22.05
2022-11-30T13:06:11.419Z,22.40
2022-11-30T13:08:50.818Z,19.73
2022-11-30T13:11:27.177Z,23.10
2022-11-30T13:13:58.988Z,23.85
2022-11-30T13:16:31.298Z,23.17
2022-11-30T13:19:11.264Z,23.90
2022-11-30T13:21:50.614Z,26.93
2022-11-30T13:24:29.083Z,25.23
2022-11-30T13:27:07.816Z,25.40
2022-11-30T13:29:53.493Z,25.70
2022-11-30T13:32:56.262Z,25.63
2022-11-30T13:35:43.694Z,24.50
2022-11-30T13:41:10.207Z,28.50
2022-11-30T13:43:47.757Z,32.08
2022-11-30T13:46:21.968Z,24.17
2022-11-30T13:49:10.189Z,25.90
2022-11-30T13:51:42.436Z,24.58
2022-11-30T13:54:38.763Z,29.77
2022-11-30T13:57:19.654Z,26.60
2022-11-30T13:59:52.828Z,26.63
2022-11-30T14:02:59.300Z,27.00
2022-11-30T14:05:39.145Z,25.58
2022-11-30T14:08:32.310Z,25.00
2022-11-30T14:11:42.507Z,27.70
2022-11-30T14:14:45.887Z,27.00
2022-11-30T14:17:20.893Z,25.57
2022-11-30T14:19:53.316Z,23.80
2022-11-30T14:22:23.345Z,26.48
2022-11-30T14:24:52.914Z,24.55
2022-11-30T14:27:26.233Z,24.13
2022-11-30T14:30:01.975Z,23.10
2022-11-30T14:32:39.216Z,22.13
2022-11-30T14:35:13.207Z,23.52
2022-11-30T14:37:46.229Z,24.90
2022-11-30T14:40:19.272Z,22.02
2022-11-30T14:42:51.319Z,26.27
2022-11-30T14:45:26.753Z,25.30
2022-11-30T14:48:07.645Z,22.15
2022-11-30T14:50:38.827Z,26.02
2022-11-30T14:53:19.387Z,24.08
2022-11-30T14:55:53.955Z,24.03
2022-11-30T14:58:32.558Z,23.98
2022-11-30T15:01:05.124Z,23.42
2022-11-30T15:03:40.652Z,21.85
2022-11-30T15:06:10.430Z,22.83
2022-11-30T15:08:43.521Z,24.60
2022-11-30T15:11:16.419Z,22.17
2022-11-30T15:13:49.464Z,24.52
2022-11-30T15:16:22.264Z,25.48
2022-11-30T15:18:54.464Z,24.65
2022-11-30T15:21:25.639Z,24.23
2022-11-30T15:23:56.810Z,24.02
2022-11-30T15:26:30.547Z,23.67
2022-11-30T15:29:03.637Z,25.05
2022-11-30T15:31:37.028Z,21.42
2022-11-30T15:34:18.271Z,24.80
2022-11-30T15:36:48.781Z,24.20
2022-11-30T15:39:23.556Z,26.55
2022-11-30T15:41:56.101Z,23.00
2022-11-30T15:44:27.192Z,26.85
2022-11-30T15:46:59.524Z,27.83
2022-11-30T15:49:31.744Z,24.20
2022-11-30T15:52:04.915Z,27.88
2022-11-30T15:54:48.085Z,30.50
2022-11-30T15:57:18.387Z,27.80
2022-11-30T16:00:07.465Z,28.10
2022-11-30T16:02:38.782Z,30.48
2022-11-30T16:05:25.283Z,31.27
2022-11-30T16:07:57.470Z,31.67
2022-11-30T16:10:30.283Z,30.42
2022-11-30T16:12:59.672Z,30.10
2022-11-30T16:15:31.344Z,33.15
2022-11-30T16:18:02.524Z,32.97
2022-11-30T16:20:33.834Z,30.85
2022-11-30T16:23:05.926Z,32.13
2022-11-30T16:25:35.633Z,35.63
2022-11-30T16:28:05.134Z,33.58
2022-11-30T16:30:34.452Z,34.65
2022-11-30T16:33:03.984Z,37.78
2022-11-30T16:35:39.678Z,34.67
2022-11-30T16:38:09.103Z,33.87
2022-11-30T16:40:39.209Z,37.25
2022-11-30T16:43:11.524Z,38.63
2022-11-30T16:45:41.920Z,39.95
2022-11-30T16:48:11.365Z,34.78
2022-11-30T16:50:42.366Z,35.50
2022-11-30T16:53:15.103Z,39.45
2022-11-30T16:55:44.705Z,33.88
2022-11-30T16:58:14.073Z,33.33
2022-11-30T17:00:43.455Z,36.00
2022-11-30T17:03:19.929Z,36.07
2022-11-30T17:05:50.745Z,32.35
2022-11-30T17:08:20.104Z,32.35
2022-11-30T17:10:53.005Z,31.05
2022-11-30T17:13:22.818Z,31.48
2022-11-30T17:15:52.155Z,28.10
2022-11-30T17:18:21.561Z,29.85
2022-11-30T17:20:54.411Z,28.13
2022-11-30T17:23:24.843Z,34.38
2022-11-30T17:25:56.345Z,35.95
2022-11-30T17:28:26.266Z,39.47
2022-11-30T17:30:57.517Z,38.22
2022-11-30T17:33:32.785Z,43.85
2022-11-30T17:36:06.644Z,41.60
2022-11-30T17:38:37.456Z,41.63
2022-11-30T17:41:07.564Z,37.27
2022-11-30T17:43:38.227Z,43.15
2022-11-30T17:46:09.036Z,44.30
2022-11-30T17:48:38.621Z,45.55
2022-11-30T17:51:10.935Z,46.42
2022-11-30T17:53:40.624Z,47.73
2022-11-30T17:56:12.230Z,41.75
2022-11-30T17:58:44.013Z,49.05
2022-11-30T18:01:18.508Z,44.60
2022-11-30T18:03:48.391Z,43.65
2022-11-30T18:06:19.620Z,38.97
2022-11-30T18:08:49.196Z,44.97
2022-11-30T18:11:21.176Z,42.47
2022-11-30T18:13:51.886Z,41.05
2022-11-30T18:16:24.287Z,42.40
2022-11-30T18:18:54.278Z,46.97
2022-11-30T18:21:27.033Z,40.95
2022-11-30T18:23:56.775Z,43.72
2022-11-30T18:26:28.137Z,43.13
2022-11-30T18:28:58.994Z,46.75
2022-11-30T18:31:29.463Z,41.67
2022-11-30T18:34:00.522Z,42.85
2022-11-30T18:36:31.817Z,41.42
2022-11-30T18:39:01.414Z,44.60
2022-11-30T18:41:31.573Z,43.90
2022-11-30T18:44:00.954Z,42.97
2022-11-30T18:46:31.283Z,44.85
2022-11-30T18:49:01.835Z,41.45
2022-11-30T18:51:32.876Z,37.80
2022-11-30T18:54:04.142Z,40.22
2022-11-30T18:56:35.425Z,44.60
2022-11-30T18:59:07.001Z,41.30
2022-11-30T19:01:37.017Z,44.10
2022-11-30T19:04:08.457Z,42.38
2022-11-30T19:06:41.300Z,37.83
2022-11-30T19:09:13.131Z,38.73
2022-11-30T19:11:42.808Z,36.08
2022-11-30T19:14:14.469Z,40.00
2022-11-30T19:16:44.902Z,39.80
2022-11-30T19:19:15.597Z,40.28
2022-11-30T19:21:48.080Z,37.43
2022-11-30T19:24:18.281Z,34.28
2022-11-30T19:26:47.835Z,36.60
2022-11-30T19:29:17.227Z,39.20
2022-11-30T19:31:46.565Z,36.00
2022-11-30T19:34:15.933Z,36.50
2022-11-30T19:36:46.645Z,39.25
2022-11-30T19:39:16.083Z,35.78
2022-11-30T19:41:45.617Z,38.28
2022-11-30T19:44:16.534Z,38.50
2022-11-30T19:46:46.143Z,36.43
2022-11-30T19:49:16.151Z,35.55
2022-11-30T19:51:47.064Z,41.53
2022-11-30T19:54:16.333Z,35.63
2022-11-30T19:56:45.685Z,35.00
2022-11-30T19:59:15.028Z,39.70
2022-11-30T20:01:44.774Z,37.40
2022-11-30T20:04:14.222Z,43.33
2022-11-30T20:06:43.708Z,41.05
2022-11-30T20:09:14.474Z,33.58
2022-11-30T20:11:43.977Z,34.30
2022-11-30T20:14:17.333Z,42.83
2022-11-30T20:16:46.559Z,35.25
2022-11-30T20:19:17.329Z,37.47
2022-11-30T20:21:48.476Z,33.30
2022-11-30T20:24:19.253Z,35.43
2022-11-30T20:26:49.249Z,34.35
2022-11-30T20:29:19.586Z,35.33
2022-11-30T20:31:50.457Z,34.70
2022-11-30T20:34:19.820Z,35.97
2022-11-30T20:36:49.211Z,37.07
2022-11-30T20:39:19.981Z,37.45
2022-11-30T20:41:49.353Z,32.22
2022-11-30T20:44:19.503Z,33.30
2022-11-30T20:46:48.996Z,30.25
2022-11-30T20:49:21.538Z,33.50
2022-11-30T20:51:51.078Z,29.30
2022-11-30T20:54:24.816Z,35.22
2022-11-30T20:56:54.162Z,33.05
2022-11-30T20:59:26.617Z,33.83
2022-11-30T21:01:57.140Z,34.57
2022-11-30T21:04:27.266Z,32.00
2022-11-30T21:06:56.698Z,29.63
2022-11-30T21:09:27.375Z,29.90
2022-11-30T21:11:56.629Z,30.55
2022-11-30T21:14:25.916Z,28.77
2022-11-30T21:16:55.317Z,34.25
2022-11-30T21:19:24.624Z,30.75
2022-11-30T21:21:55.619Z,28.58
2022-11-30T21:24:26.520Z,27.17
2022-11-30T21:26:56.360Z,24.27
2022-11-30T21:29:25.811Z,23.77
2022-11-30T21:31:55.185Z,25.33
2022-11-30T21:34:25.548Z,23.13
2022-11-30T21:36:54.879Z,27.40
2022-11-30T21:39:24.568Z,27.20
2022-11-30T21:41:55.761Z,26.50
2022-11-30T21:44:25.203Z,24.45
2022-11-30T21:46:54.609Z,22.40
2022-11-30T21:49:24.103Z,24.00
2022-11-30T21:51:54.445Z,27.53
2022-11-30T21:54:23.895Z,27.35
2022-11-30T21:56:54.571Z,21.17
2022-11-30T21:59:23.939Z,23.30
2022-11-30T22:01:53.364Z,29.13
2022-11-30T22:04:22.760Z,25.33
2022-11-30T22:06:52.126Z,24.27
2022-11-30T22:09:21.474Z,24.95
2022-11-30T22:11:50.763Z,24.77
2022-11-30T22:14:21.482Z,25.33
2022-11-30T22:16:50.791Z,24.33
2022-11-30T22:19:20.163Z,23.02
2022-11-30T22:21:50.558Z,22.85
2022-11-30T22:24:20.043Z,22.05
2022-11-30T22:26:50.240Z,25.30
2022-11-30T22:29:22.571Z,24.30
2022-11-30T22:31:54.275Z,24.08
2022-11-30T22:34:23.709Z,25.33
2022-11-30T22:36:52.950Z,24.00
2022-11-30T22:39:23.103Z,25.08
2022-11-30T22:41:56.141Z,24.90
2022-11-30T22:44:27.183Z,22.08
2022-11-30T22:46:56.977Z,24.42
2022-11-30T22:49:26.542Z,22.08
2022-11-30T22:51:55.840Z,21.42
2022-11-30T22:54:25.304Z,22.43
2022-11-30T22:56:54.511Z,24.20
2022-11-30T22:59:23.843Z,21.98
2022-11-30T23:01:54.434Z,19.67
2022-11-30T23:04:24.003Z,20.92
2022-11-30T23:06:53.702Z,22.47
2022-11-30T23:09:24.325Z,21.60
2022-11-30T23:11:54.073Z,19.45
2022-11-30T23:14:23.335Z,19.38
2022-11-30T23:16:54.024Z,21.75
2022-11-30T23:19:23.381Z,22.17
2022-11-30T23:21:53.586Z,21.75
2022-11-30T23:24:24.020Z,20.98
2022-11-30T23:26:53.296Z,19.48
2022-11-30T23:29:22.517Z,22.27
2022-11-30T23:31:51.844Z,17.60
2022-11-30T23:34:23.517Z,18.27
2022-11-30T23:36:52.898Z,19.80
2022-11-30T23:39:22.344Z,16.25
2022-11-30T23:41:51.659Z,18.23
2022-11-30T23:44:20.962Z,17.57
2022-11-30T23:46:50.491Z,17.35
2022-11-30T23:49:19.827Z,19.25
2022-11-30T23:51:50.473Z,17.48
2022-11-30T23:54:19.861Z,17.92
2022-11-30T23:56:49.061Z,19.50
2022-11-30T23:59:18.435Z,18.15
